sensor_id;sensor_type;location;lat;lon;timestamp;P1;durP1;ratioP1;P2;durP2;ratioP2
43801;SDS011;29429;51.074;13.764;2024-02-14T00:01:06;8.63;;;4.00;;
43801;SDS011;29429;51.074;13.764;2024-02-14T00:03:36;7.65;;;3.53;;
43801;SDS011;29429;51.074;13.764;2024-02-14T00:06:05;7.18;;;3.58;;
43801;SDS011;29429;51.074;13.764;2024-02-14T00:08:32;5.75;;;3.60;;
43801;SDS011;29429;51.074;13.764;2024-02-14T00:10:59;5.85;;;3.55;;
43801;SDS011;29429;51.074;13.764;2024-02-14T00:13:27;5.13;;;3.03;;
43801;SDS011;29429;51.074;13.764;2024-02-14T00:15:53;6.10;;;3.22;;
43801;SDS011;29429;51.074;13.764;2024-02-14T00:18:22;6.10;;;3.03;;
43801;SDS011;29429;51.074;13.764;2024-02-14T00:20:50;9.18;;;3.45;;
43801;SDS011;29429;51.074;13.764;2024-02-14T00:23:17;5.65;;;3.40;;
43801;SDS011;29429;51.074;13.764;2024-02-14T00:25:44;3.65;;;2.67;;
43801;SDS011;29429;51.074;13.764;2024-02-14T00:28:11;5.28;;;3.20;;
43801;SDS011;29429;51.074;13.764;2024-02-14T00:30:38;6.78;;;3.00;;
43801;SDS011;29429;51.074;13.764;2024-02-14T00:33:05;8.32;;;3.63;;
43801;SDS011;29429;51.074;13.764;2024-02-14T00:35:33;10.52;;;4.05;;
43801;SDS011;29429;51.074;13.764;2024-02-14T00:38:00;5.72;;;3.42;;
43801;SDS011;29429;51.074;13.764;2024-02-14T00:40:27;7.07;;;3.50;;
43801;SDS011;29429;51.074;13.764;2024-02-14T00:42:54;7.88;;;4.30;;
43801;SDS011;29429;51.074;13.764;2024-02-14T00:45:21;5.72;;;3.45;;
43801;SDS011;29429;51.074;13.764;2024-02-14T00:47:48;8.00;;;4.38;;
43801;SDS011;29429;51.074;13.764;2024-02-14T00:50:15;9.55;;;4.93;;
43801;SDS011;29429;51.074;13.764;2024-02-14T00:52:42;7.05;;;4.45;;
43801;SDS011;29429;51.074;13.764;2024-02-14T00:55:09;7.10;;;4.35;;
43801;SDS011;29429;51.074;13.764;2024-02-14T00:57:37;10.13;;;4.88;;
43801;SDS011;29429;51.074;13.764;2024-02-14T01:00:05;7.82;;;4.70;;
43801;SDS011;29429;51.074;13.764;2024-02-14T01:02:33;6.85;;;4.25;;
43801;SDS011;29429;51.074;13.764;2024-02-14T01:05:00;8.27;;;3.95;;
43801;SDS011;29429;51.074;13.764;2024-02-14T01:07:28;6.40;;;3.90;;
43801;SDS011;29429;51.074;13.764;2024-02-14T01:09:55;6.07;;;3.83;;
43801;SDS011;29429;51.074;13.764;2024-02-14T01:12:22;7.93;;;4.38;;
43801;SDS011;29429;51.074;13.764;2024-02-14T01:14:49;7.97;;;4.18;;
43801;SDS011;29429;51.074;13.764;2024-02-14T01:17:16;7.05;;;3.60;;
43801;SDS011;29429;51.074;13.764;2024-02-14T01:19:43;6.90;;;3.85;;
43801;SDS011;29429;51.074;13.764;2024-02-14T01:22:10;6.68;;;3.90;;
43801;SDS011;29429;51.074;13.764;2024-02-14T01:24:37;6.53;;;4.25;;
43801;SDS011;29429;51.074;13.764;2024-02-14T01:27:04;5.65;;;3.78;;
43801;SDS011;29429;51.074;13.764;2024-02-14T01:29:31;7.20;;;3.90;;
43801;SDS011;29429;51.074;13.764;2024-02-14T01:31:59;7.90;;;3.55;;
43801;SDS011;29429;51.074;13.764;2024-02-14T01:34:26;6.82;;;3.60;;
43801;SDS011;29429;51.074;13.764;2024-02-14T01:36:54;7.22;;;3.60;;
43801;SDS011;29429;51.074;13.764;2024-02-14T01:39:21;5.90;;;3.33;;
43801;SDS011;29429;51.074;13.764;2024-02-14T01:41:48;5.25;;;3.47;;
43801;SDS011;29429;51.074;13.764;2024-02-14T01:44:16;4.75;;;3.13;;
43801;SDS011;29429;51.074;13.764;2024-02-14T01:46:44;3.67;;;2.92;;
43801;SDS011;29429;51.074;13.764;2024-02-14T01:49:11;6.30;;;3.10;;
43801;SDS011;29429;51.074;13.764;2024-02-14T01:51:40;7.78;;;3.28;;
43801;SDS011;29429;51.074;13.764;2024-02-14T01:54:11;6.22;;;3.35;;
43801;SDS011;29429;51.074;13.764;2024-02-14T01:56:40;7.90;;;3.50;;
43801;SDS011;29429;51.074;13.764;2024-02-14T01:59:09;5.07;;;3.08;;
43801;SDS011;29429;51.074;13.764;2024-02-14T02:01:36;10.13;;;3.25;;
43801;SDS011;29429;51.074;13.764;2024-02-14T02:04:03;4.75;;;3.25;;
43801;SDS011;29429;51.074;13.764;2024-02-14T02:06:31;7.03;;;3.03;;
43801;SDS011;29429;51.074;13.764;2024-02-14T02:08:59;4.65;;;3.30;;
43801;SDS011;29429;51.074;13.764;2024-02-14T02:11:27;4.35;;;3.10;;
43801;SDS011;29429;51.074;13.764;2024-02-14T02:13:54;8.63;;;3.45;;
43801;SDS011;29429;51.074;13.764;2024-02-14T02:16:21;5.05;;;3.42;;
43801;SDS011;29429;51.074;13.764;2024-02-14T02:18:48;6.45;;;3.60;;
43801;SDS011;29429;51.074;13.764;2024-02-14T02:21:16;5.93;;;3.67;;
43801;SDS011;29429;51.074;13.764;2024-02-14T02:23:46;6.05;;;3.58;;
43801;SDS011;29429;51.074;13.764;2024-02-14T02:26:13;6.75;;;3.85;;
43801;SDS011;29429;51.074;13.764;2024-02-14T02:28:41;6.53;;;3.47;;
43801;SDS011;29429;51.074;13.764;2024-02-14T02:31:09;4.68;;;3.17;;
43801;SDS011;29429;51.074;13.764;2024-02-14T02:33:36;7.18;;;3.42;;
43801;SDS011;29429;51.074;13.764;2024-02-14T02:36:03;4.57;;;2.92;;
43801;SDS011;29429;51.074;13.764;2024-02-14T02:38:33;7.22;;;3.97;;
43801;SDS011;29429;51.074;13.764;2024-02-14T02:41:00;5.53;;;3.40;;
43801;SDS011;29429;51.074;13.764;2024-02-14T02:43:27;5.28;;;3.47;;
43801;SDS011;29429;51.074;13.764;2024-02-14T02:45:54;5.32;;;3.90;;
43801;SDS011;29429;51.074;13.764;2024-02-14T02:48:21;6.43;;;3.92;;
43801;SDS011;29429;51.074;13.764;2024-02-14T02:50:49;5.57;;;3.60;;
43801;SDS011;29429;51.074;13.764;2024-02-14T02:53:17;5.53;;;3.38;;
43801;SDS011;29429;51.074;13.764;2024-02-14T02:55:45;5.90;;;3.83;;
43801;SDS011;29429;51.074;13.764;2024-02-14T02:58:12;5.78;;;3.35;;
43801;SDS011;29429;51.074;13.764;2024-02-14T03:00:40;6.68;;;2.90;;
43801;SDS011;29429;51.074;13.764;2024-02-14T03:03:07;7.82;;;3.88;;
43801;SDS011;29429;51.074;13.764;2024-02-14T03:05:35;5.88;;;2.90;;
43801;SDS011;29429;51.074;13.764;2024-02-14T03:08:02;9.23;;;4.00;;
43801;SDS011;29429;51.074;13.764;2024-02-14T03:10:30;7.88;;;3.22;;
43801;SDS011;29429;51.074;13.764;2024-02-14T03:12:57;6.10;;;3.60;;
43801;SDS011;29429;51.074;13.764;2024-02-14T03:15:24;6.30;;;3.58;;
43801;SDS011;29429;51.074;13.764;2024-02-14T03:17:52;5.75;;;3.10;;
43801;SDS011;29429;51.074;13.764;2024-02-14T03:20:19;4.50;;;2.92;;
43801;SDS011;29429;51.074;13.764;2024-02-14T03:22:46;5.35;;;3.42;;
43801;SDS011;29429;51.074;13.764;2024-02-14T03:25:18;6.20;;;3.38;;
43801;SDS011;29429;51.074;13.764;2024-02-14T03:27:47;4.07;;;2.83;;
43801;SDS011;29429;51.074;13.764;2024-02-14T03:30:18;6.03;;;3.00;;
43801;SDS011;29429;51.074;13.764;2024-02-14T03:32:46;5.18;;;3.15;;
43801;SDS011;29429;51.074;13.764;2024-02-14T03:35:13;6.40;;;3.00;;
43801;SDS011;29429;51.074;13.764;2024-02-14T03:37:41;5.68;;;3.05;;
43801;SDS011;29429;51.074;13.764;2024-02-14T03:40:10;4.25;;;2.60;;
43801;SDS011;29429;51.074;13.764;2024-02-14T03:42:37;8.18;;;3.22;;
43801;SDS011;29429;51.074;13.764;2024-02-14T03:45:07;4.55;;;2.75;;
43801;SDS011;29429;51.074;13.764;2024-02-14T03:47:35;4.57;;;3.20;;
43801;SDS011;29429;51.074;13.764;2024-02-14T03:50:06;5.60;;;3.03;;
43801;SDS011;29429;51.074;13.764;2024-02-14T03:52:35;7.13;;;3.10;;
43801;SDS011;29429;51.074;13.764;2024-02-14T03:55:02;4.53;;;3.00;;
43801;SDS011;29429;51.074;13.764;2024-02-14T03:57:31;5.18;;;2.92;;
43801;SDS011;29429;51.074;13.764;2024-02-14T03:59:59;5.72;;;2.95;;
43801;SDS011;29429;51.074;13.764;2024-02-14T04:02:37;6.45;;;3.05;;
43801;SDS011;29429;51.074;13.764;2024-02-14T04:05:06;4.85;;;3.10;;
43801;SDS011;29429;51.074;13.764;2024-02-14T04:07:35;5.03;;;2.80;;
43801;SDS011;29429;51.074;13.764;2024-02-14T04:10:03;7.22;;;3.25;;
43801;SDS011;29429;51.074;13.764;2024-02-14T04:12:31;5.30;;;2.80;;
43801;SDS011;29429;51.074;13.764;2024-02-14T04:14:58;5.65;;;2.58;;
43801;SDS011;29429;51.074;13.764;2024-02-14T04:17:25;7.50;;;2.70;;
43801;SDS011;29429;51.074;13.764;2024-02-14T04:19:52;7.75;;;2.97;;
43801;SDS011;29429;51.074;13.764;2024-02-14T04:22:20;5.35;;;3.00;;
43801;SDS011;29429;51.074;13.764;2024-02-14T04:24:47;6.63;;;2.72;;
43801;SDS011;29429;51.074;13.764;2024-02-14T04:27:14;3.95;;;2.47;;
43801;SDS011;29429;51.074;13.764;2024-02-14T04:29:44;7.22;;;2.70;;
43801;SDS011;29429;51.074;13.764;2024-02-14T04:32:12;7.85;;;2.92;;
43801;SDS011;29429;51.074;13.764;2024-02-14T04:34:40;4.65;;;2.83;;
43801;SDS011;29429;51.074;13.764;2024-02-14T04:37:09;5.65;;;3.53;;
43801;SDS011;29429;51.074;13.764;2024-02-14T04:39:40;7.22;;;3.08;;
43801;SDS011;29429;51.074;13.764;2024-02-14T04:42:08;4.50;;;2.80;;
43801;SDS011;29429;51.074;13.764;2024-02-14T04:44:35;4.10;;;2.42;;
43801;SDS011;29429;51.074;13.764;2024-02-14T04:47:02;5.65;;;3.20;;
43801;SDS011;29429;51.074;13.764;2024-02-14T04:49:30;7.72;;;2.55;;
43801;SDS011;29429;51.074;13.764;2024-02-14T04:51:57;6.03;;;2.70;;
43801;SDS011;29429;51.074;13.764;2024-02-14T04:54:25;9.20;;;3.33;;
43801;SDS011;29429;51.074;13.764;2024-02-14T04:56:53;4.22;;;2.55;;
43801;SDS011;29429;51.074;13.764;2024-02-14T04:59:25;4.95;;;2.30;;
43801;SDS011;29429;51.074;13.764;2024-02-14T05:01:53;4.75;;;2.53;;
43801;SDS011;29429;51.074;13.764;2024-02-14T05:04:20;6.78;;;2.95;;
43801;SDS011;29429;51.074;13.764;2024-02-14T05:06:48;5.13;;;3.22;;
43801;SDS011;29429;51.074;13.764;2024-02-14T05:09:17;8.10;;;3.00;;
43801;SDS011;29429;51.074;13.764;2024-02-14T05:11:44;3.58;;;2.30;;
43801;SDS011;29429;51.074;13.764;2024-02-14T05:14:12;5.15;;;2.75;;
43801;SDS011;29429;51.074;13.764;2024-02-14T05:16:39;6.47;;;3.28;;
43801;SDS011;29429;51.074;13.764;2024-02-14T05:19:05;4.28;;;2.60;;
43801;SDS011;29429;51.074;13.764;2024-02-14T05:21:33;6.28;;;2.90;;
43801;SDS011;29429;51.074;13.764;2024-02-14T05:24:00;3.97;;;2.47;;
43801;SDS011;29429;51.074;13.764;2024-02-14T05:26:27;4.40;;;3.05;;
43801;SDS011;29429;51.074;13.764;2024-02-14T05:28:55;6.43;;;3.08;;
43801;SDS011;29429;51.074;13.764;2024-02-14T05:31:21;7.32;;;3.50;;
43801;SDS011;29429;51.074;13.764;2024-02-14T05:33:50;8.55;;;3.33;;
43801;SDS011;29429;51.074;13.764;2024-02-14T05:36:21;6.90;;;3.53;;
43801;SDS011;29429;51.074;13.764;2024-02-14T05:38:51;7.40;;;4.15;;
43801;SDS011;29429;51.074;13.764;2024-02-14T05:41:19;10.30;;;3.90;;
43801;SDS011;29429;51.074;13.764;2024-02-14T05:43:46;9.32;;;3.45;;
43801;SDS011;29429;51.074;13.764;2024-02-14T05:46:13;6.82;;;3.40;;
43801;SDS011;29429;51.074;13.764;2024-02-14T05:48:40;6.55;;;3.78;;
43801;SDS011;29429;51.074;13.764;2024-02-14T05:51:08;6.05;;;3.85;;
43801;SDS011;29429;51.074;13.764;2024-02-14T05:53:35;7.35;;;3.70;;
43801;SDS011;29429;51.074;13.764;2024-02-14T05:56:02;6.65;;;3.35;;
43801;SDS011;29429;51.074;13.764;2024-02-14T05:58:30;4.47;;;3.08;;
43801;SDS011;29429;51.074;13.764;2024-02-14T06:00:58;6.00;;;3.85;;
43801;SDS011;29429;51.074;13.764;2024-02-14T06:03:25;5.30;;;3.10;;
43801;SDS011;29429;51.074;13.764;2024-02-14T06:05:52;5.45;;;3.20;;
43801;SDS011;29429;51.074;13.764;2024-02-14T06:08:19;7.25;;;3.78;;
43801;SDS011;29429;51.074;13.764;2024-02-14T06:10:46;8.18;;;4.07;;
43801;SDS011;29429;51.074;13.764;2024-02-14T06:13:15;7.88;;;3.30;;
43801;SDS011;29429;51.074;13.764;2024-02-14T06:15:41;7.95;;;3.20;;
43801;SDS011;29429;51.074;13.764;2024-02-14T06:18:09;6.25;;;3.28;;
43801;SDS011;29429;51.074;13.764;2024-02-14T06:20:36;6.82;;;3.38;;
43801;SDS011;29429;51.074;13.764;2024-02-14T06:23:05;9.15;;;3.58;;
43801;SDS011;29429;51.074;13.764;2024-02-14T06:25:33;7.78;;;3.50;;
43801;SDS011;29429;51.074;13.764;2024-02-14T06:28:00;6.30;;;3.80;;
43801;SDS011;29429;51.074;13.764;2024-02-14T06:30:28;6.53;;;3.42;;
43801;SDS011;29429;51.074;13.764;2024-02-14T06:32:58;5.28;;;3.33;;
43801;SDS011;29429;51.074;13.764;2024-02-14T06:35:28;7.35;;;3.72;;
43801;SDS011;29429;51.074;13.764;2024-02-14T06:37:56;10.75;;;3.38;;
43801;SDS011;29429;51.074;13.764;2024-02-14T06:40:30;6.43;;;3.92;;
43801;SDS011;29429;51.074;13.764;2024-02-14T06:42:58;6.53;;;3.80;;
43801;SDS011;29429;51.074;13.764;2024-02-14T06:45:27;8.50;;;3.55;;
43801;SDS011;29429;51.074;13.764;2024-02-14T06:47:55;8.25;;;4.32;;
43801;SDS011;29429;51.074;13.764;2024-02-14T06:50:22;9.30;;;3.85;;
43801;SDS011;29429;51.074;13.764;2024-02-14T06:52:52;6.53;;;3.38;;
43801;SDS011;29429;51.074;13.764;2024-02-14T06:55:19;5.45;;;3.42;;
43801;SDS011;29429;51.074;13.764;2024-02-14T06:57:46;9.82;;;3.80;;
43801;SDS011;29429;51.074;13.764;2024-02-14T07:00:13;7.25;;;3.47;;
43801;SDS011;29429;51.074;13.764;2024-02-14T07:02:41;7.97;;;3.47;;
43801;SDS011;29429;51.074;13.764;2024-02-14T07:05:09;7.90;;;3.42;;
43801;SDS011;29429;51.074;13.764;2024-02-14T07:07:39;4.18;;;2.83;;
43801;SDS011;29429;51.074;13.764;2024-02-14T07:10:06;10.18;;;4.75;;
43801;SDS011;29429;51.074;13.764;2024-02-14T07:12:34;5.53;;;3.40;;
43801;SDS011;29429;51.074;13.764;2024-02-14T07:15:03;10.10;;;3.80;;
43801;SDS011;29429;51.074;13.764;2024-02-14T07:17:32;12.32;;;4.07;;
43801;SDS011;29429;51.074;13.764;2024-02-14T07:19:59;5.90;;;3.22;;
43801;SDS011;29429;51.074;13.764;2024-02-14T07:22:28;9.18;;;3.33;;
43801;SDS011;29429;51.074;13.764;2024-02-14T07:24:56;8.60;;;3.58;;
43801;SDS011;29429;51.074;13.764;2024-02-14T07:27:23;4.68;;;2.83;;
43801;SDS011;29429;51.074;13.764;2024-02-14T07:29:50;11.05;;;3.60;;
43801;SDS011;29429;51.074;13.764;2024-02-14T07:32:18;6.22;;;3.08;;
43801;SDS011;29429;51.074;13.764;2024-02-14T07:34:45;5.57;;;2.92;;
43801;SDS011;29429;51.074;13.764;2024-02-14T07:37:12;6.05;;;3.50;;
43801;SDS011;29429;51.074;13.764;2024-02-14T07:39:42;5.20;;;2.95;;
43801;SDS011;29429;51.074;13.764;2024-02-14T07:42:08;7.30;;;3.08;;
43801;SDS011;29429;51.074;13.764;2024-02-14T07:44:36;6.70;;;2.95;;
43801;SDS011;29429;51.074;13.764;2024-02-14T07:47:03;5.57;;;3.00;;
43801;SDS011;29429;51.074;13.764;2024-02-14T07:49:32;5.60;;;2.72;;
43801;SDS011;29429;51.074;13.764;2024-02-14T07:52:00;8.27;;;3.97;;
43801;SDS011;29429;51.074;13.764;2024-02-14T07:54:27;6.10;;;2.92;;
43801;SDS011;29429;51.074;13.764;2024-02-14T07:56:54;8.75;;;3.80;;
43801;SDS011;29429;51.074;13.764;2024-02-14T07:59:21;6.65;;;3.55;;
43801;SDS011;29429;51.074;13.764;2024-02-14T08:01:48;7.60;;;3.22;;
43801;SDS011;29429;51.074;13.764;2024-02-14T08:04:15;8.77;;;3.50;;
43801;SDS011;29429;51.074;13.764;2024-02-14T08:06:44;6.90;;;3.50;;
43801;SDS011;29429;51.074;13.764;2024-02-14T08:09:13;5.43;;;2.65;;
43801;SDS011;29429;51.074;13.764;2024-02-14T08:11:40;7.05;;;3.10;;
43801;SDS011;29429;51.074;13.764;2024-02-14T08:14:07;5.30;;;2.72;;
43801;SDS011;29429;51.074;13.764;2024-02-14T08:16:34;5.47;;;2.50;;
43801;SDS011;29429;51.074;13.764;2024-02-14T08:19:02;6.80;;;2.95;;
43801;SDS011;29429;51.074;13.764;2024-02-14T08:21:30;7.80;;;3.05;;
43801;SDS011;29429;51.074;13.764;2024-02-14T08:23:58;5.97;;;2.50;;
43801;SDS011;29429;51.074;13.764;2024-02-14T08:26:27;6.82;;;2.72;;
43801;SDS011;29429;51.074;13.764;2024-02-14T08:28:55;5.80;;;2.70;;
43801;SDS011;29429;51.074;13.764;2024-02-14T08:31:22;4.68;;;2.13;;
43801;SDS011;29429;51.074;13.764;2024-02-14T08:33:49;3.92;;;2.20;;
43801;SDS011;29429;51.074;13.764;2024-02-14T08:36:17;7.10;;;2.22;;
43801;SDS011;29429;51.074;13.764;2024-02-14T08:38:46;5.45;;;2.28;;
43801;SDS011;29429;51.074;13.764;2024-02-14T08:41:14;6.90;;;2.55;;
43801;SDS011;29429;51.074;13.764;2024-02-14T08:43:41;5.32;;;2.45;;
43801;SDS011;29429;51.074;13.764;2024-02-14T08:46:13;6.32;;;2.85;;
43801;SDS011;29429;51.074;13.764;2024-02-14T08:48:41;7.43;;;2.45;;
43801;SDS011;29429;51.074;13.764;2024-02-14T08:51:14;8.02;;;2.92;;
43801;SDS011;29429;51.074;13.764;2024-02-14T08:53:44;5.75;;;2.40;;
43801;SDS011;29429;51.074;13.764;2024-02-14T08:56:12;5.75;;;2.30;;
43801;SDS011;29429;51.074;13.764;2024-02-14T08:58:40;6.85;;;2.35;;
43801;SDS011;29429;51.074;13.764;2024-02-14T09:01:08;5.03;;;2.97;;
43801;SDS011;29429;51.074;13.764;2024-02-14T09:03:44;5.25;;;2.30;;
43801;SDS011;29429;51.074;13.764;2024-02-14T09:08:47;3.85;;;2.10;;
43801;SDS011;29429;51.074;13.764;2024-02-14T09:11:14;5.22;;;2.20;;
43801;SDS011;29429;51.074;13.764;2024-02-14T09:13:41;6.47;;;2.45;;
43801;SDS011;29429;51.074;13.764;2024-02-14T09:16:09;4.55;;;2.30;;
43801;SDS011;29429;51.074;13.764;2024-02-14T09:18:37;7.63;;;2.60;;
43801;SDS011;29429;51.074;13.764;2024-02-14T09:21:05;5.85;;;2.70;;
43801;SDS011;29429;51.074;13.764;2024-02-14T09:23:33;4.80;;;2.40;;
43801;SDS011;29429;51.074;13.764;2024-02-14T09:26:00;6.97;;;2.70;;
43801;SDS011;29429;51.074;13.764;2024-02-14T09:28:28;4.68;;;2.10;;
43801;SDS011;29429;51.074;13.764;2024-02-14T09:30:55;5.15;;;2.15;;
43801;SDS011;29429;51.074;13.764;2024-02-14T09:33:22;4.47;;;2.15;;
43801;SDS011;29429;51.074;13.764;2024-02-14T09:35:50;4.38;;;2.22;;
43801;SDS011;29429;51.074;13.764;2024-02-14T09:38:18;5.07;;;2.53;;
43801;SDS011;29429;51.074;13.764;2024-02-14T09:40:46;6.45;;;2.30;;
43801;SDS011;29429;51.074;13.764;2024-02-14T09:43:58;2.67;;;1.90;;
43801;SDS011;29429;51.074;13.764;2024-02-14T09:46:21;4.38;;;2.25;;
43801;SDS011;29429;51.074;13.764;2024-02-14T09:48:54;3.38;;;1.98;;
43801;SDS011;29429;51.074;13.764;2024-02-14T09:51:23;4.93;;;2.35;;
43801;SDS011;29429;51.074;13.764;2024-02-14T09:53:51;4.97;;;2.38;;
43801;SDS011;29429;51.074;13.764;2024-02-14T09:56:21;3.70;;;2.22;;
43801;SDS011;29429;51.074;13.764;2024-02-14T09:58:49;6.32;;;2.42;;
43801;SDS011;29429;51.074;13.764;2024-02-14T10:01:22;4.38;;;2.05;;
43801;SDS011;29429;51.074;13.764;2024-02-14T10:03:51;5.25;;;2.72;;
43801;SDS011;29429;51.074;13.764;2024-02-14T10:06:18;3.67;;;2.40;;
43801;SDS011;29429;51.074;13.764;2024-02-14T10:08:47;3.97;;;1.88;;
43801;SDS011;29429;51.074;13.764;2024-02-14T10:11:29;6.57;;;2.65;;
43801;SDS011;29429;51.074;13.764;2024-02-14T10:13:59;4.47;;;2.22;;
43801;SDS011;29429;51.074;13.764;2024-02-14T10:16:31;3.95;;;2.08;;
43801;SDS011;29429;51.074;13.764;2024-02-14T10:18:58;6.00;;;2.53;;
43801;SDS011;29429;51.074;13.764;2024-02-14T10:21:26;4.28;;;2.40;;
43801;SDS011;29429;51.074;13.764;2024-02-14T10:23:55;5.07;;;2.15;;
43801;SDS011;29429;51.074;13.764;2024-02-14T10:26:27;3.92;;;2.13;;
43801;SDS011;29429;51.074;13.764;2024-02-14T10:28:56;5.03;;;2.45;;
43801;SDS011;29429;51.074;13.764;2024-02-14T10:31:24;6.45;;;2.55;;
43801;SDS011;29429;51.074;13.764;2024-02-14T10:33:52;5.60;;;2.50;;
43801;SDS011;29429;51.074;13.764;2024-02-14T10:36:23;5.18;;;2.63;;
43801;SDS011;29429;51.074;13.764;2024-02-14T10:38:50;7.80;;;2.88;;
43801;SDS011;29429;51.074;13.764;2024-02-14T10:41:18;6.30;;;2.45;;
43801;SDS011;29429;51.074;13.764;2024-02-14T10:43:45;5.90;;;2.88;;
43801;SDS011;29429;51.074;13.764;2024-02-14T10:46:14;6.03;;;3.17;;
43801;SDS011;29429;51.074;13.764;2024-02-14T10:48:56;5.90;;;2.70;;
43801;SDS011;29429;51.074;13.764;2024-02-14T10:51:31;5.43;;;2.67;;
43801;SDS011;29429;51.074;13.764;2024-02-14T10:54:06;5.28;;;3.00;;
43801;SDS011;29429;51.074;13.764;2024-02-14T10:56:41;4.82;;;3.08;;
43801;SDS011;29429;51.074;13.764;2024-02-14T10:59:13;5.35;;;2.65;;
43801;SDS011;29429;51.074;13.764;2024-02-14T11:01:44;5.07;;;2.83;;
43801;SDS011;29429;51.074;13.764;2024-02-14T11:04:13;5.55;;;2.78;;
43801;SDS011;29429;51.074;13.764;2024-02-14T11:06:44;5.15;;;2.80;;
43801;SDS011;29429;51.074;13.764;2024-02-14T11:09:13;4.70;;;2.83;;
43801;SDS011;29429;51.074;13.764;2024-02-14T11:11:42;6.55;;;2.90;;
43801;SDS011;29429;51.074;13.764;2024-02-14T11:14:18;3.65;;;2.78;;
43801;SDS011;29429;51.074;13.764;2024-02-14T11:16:45;6.10;;;3.10;;
43801;SDS011;29429;51.074;13.764;2024-02-14T11:19:13;6.13;;;2.88;;
43801;SDS011;29429;51.074;13.764;2024-02-14T11:21:44;5.32;;;2.65;;
43801;SDS011;29429;51.074;13.764;2024-02-14T11:24:14;5.38;;;2.70;;
43801;SDS011;29429;51.074;13.764;2024-02-14T11:26:49;5.63;;;2.95;;
43801;SDS011;29429;51.074;13.764;2024-02-14T11:29:19;5.18;;;2.60;;
43801;SDS011;29429;51.074;13.764;2024-02-14T11:32:00;4.57;;;2.67;;
43801;SDS011;29429;51.074;13.764;2024-02-14T11:34:29;6.78;;;2.90;;
43801;SDS011;29429;51.074;13.764;2024-02-14T11:37:03;6.45;;;2.92;;
43801;SDS011;29429;51.074;13.764;2024-02-14T11:39:32;7.05;;;2.75;;
43801;SDS011;29429;51.074;13.764;2024-02-14T11:42:00;6.88;;;3.05;;
43801;SDS011;29429;51.074;13.764;2024-02-14T11:44:28;6.85;;;3.25;;
43801;SDS011;29429;51.074;13.764;2024-02-14T11:46:55;6.30;;;2.97;;
43801;SDS011;29429;51.074;13.764;2024-02-14T11:49:22;4.25;;;2.75;;
43801;SDS011;29429;51.074;13.764;2024-02-14T11:51:50;6.43;;;2.70;;
43801;SDS011;29429;51.074;13.764;2024-02-14T11:54:17;4.95;;;2.50;;
43801;SDS011;29429;51.074;13.764;2024-02-14T11:56:48;5.57;;;2.85;;
43801;SDS011;29429;51.074;13.764;2024-02-14T11:59:15;5.30;;;2.50;;
43801;SDS011;29429;51.074;13.764;2024-02-14T12:01:46;4.60;;;2.42;;
43801;SDS011;29429;51.074;13.764;2024-02-14T12:04:14;4.72;;;2.25;;
43801;SDS011;29429;51.074;13.764;2024-02-14T12:06:41;5.05;;;1.73;;
43801;SDS011;29429;51.074;13.764;2024-02-14T12:09:09;6.78;;;2.30;;
43801;SDS011;29429;51.074;13.764;2024-02-14T12:11:39;5.68;;;2.47;;
43801;SDS011;29429;51.074;13.764;2024-02-14T12:14:12;4.28;;;1.60;;
43801;SDS011;29429;51.074;13.764;2024-02-14T12:16:40;3.58;;;1.70;;
43801;SDS011;29429;51.074;13.764;2024-02-14T12:19:08;3.58;;;2.00;;
43801;SDS011;29429;51.074;13.764;2024-02-14T12:24:15;3.85;;;1.60;;
43801;SDS011;29429;51.074;13.764;2024-02-14T12:26:42;3.05;;;1.35;;
43801;SDS011;29429;51.074;13.764;2024-02-14T12:29:13;3.30;;;1.95;;
43801;SDS011;29429;51.074;13.764;2024-02-14T12:31:40;4.35;;;2.00;;
43801;SDS011;29429;51.074;13.764;2024-02-14T12:34:10;2.00;;;1.33;;
43801;SDS011;29429;51.074;13.764;2024-02-14T12:36:38;3.35;;;1.35;;
43801;SDS011;29429;51.074;13.764;2024-02-14T12:39:05;3.13;;;1.25;;
43801;SDS011;29429;51.074;13.764;2024-02-14T12:41:33;4.63;;;1.90;;
43801;SDS011;29429;51.074;13.764;2024-02-14T12:44:01;3.75;;;1.65;;
43801;SDS011;29429;51.074;13.764;2024-02-14T12:46:28;2.67;;;1.30;;
43801;SDS011;29429;51.074;13.764;2024-02-14T12:48:56;2.97;;;1.50;;
43801;SDS011;29429;51.074;13.764;2024-02-14T12:51:23;3.05;;;1.20;;
43801;SDS011;29429;51.074;13.764;2024-02-14T12:53:55;3.30;;;1.40;;
43801;SDS011;29429;51.074;13.764;2024-02-14T12:56:22;3.67;;;1.40;;
43801;SDS011;29429;51.074;13.764;2024-02-14T12:58:50;1.95;;;1.08;;
43801;SDS011;29429;51.074;13.764;2024-02-14T13:01:17;1.50;;;0.88;;
43801;SDS011;29429;51.074;13.764;2024-02-14T13:03:44;2.25;;;1.02;;
43801;SDS011;29429;51.074;13.764;2024-02-14T13:06:12;1.88;;;0.90;;
43801;SDS011;29429;51.074;13.764;2024-02-14T13:08:40;2.58;;;1.17;;
43801;SDS011;29429;51.074;13.764;2024-02-14T13:11:08;4.15;;;1.15;;
43801;SDS011;29429;51.074;13.764;2024-02-14T13:13:36;2.17;;;1.23;;
43801;SDS011;29429;51.074;13.764;2024-02-14T13:16:03;1.88;;;0.80;;
43801;SDS011;29429;51.074;13.764;2024-02-14T13:18:33;1.90;;;1.00;;
43801;SDS011;29429;51.074;13.764;2024-02-14T13:21:01;2.75;;;0.90;;
43801;SDS011;29429;51.074;13.764;2024-02-14T13:23:29;1.58;;;0.73;;
43801;SDS011;29429;51.074;13.764;2024-02-14T13:25:57;2.83;;;1.13;;
43801;SDS011;29429;51.074;13.764;2024-02-14T13:28:24;2.25;;;0.80;;
43801;SDS011;29429;51.074;13.764;2024-02-14T13:30:51;2.53;;;0.98;;
43801;SDS011;29429;51.074;13.764;2024-02-14T13:33:23;3.33;;;1.30;;
43801;SDS011;29429;51.074;13.764;2024-02-14T13:35:50;2.92;;;1.17;;
43801;SDS011;29429;51.074;13.764;2024-02-14T13:38:17;2.70;;;1.30;;
43801;SDS011;29429;51.074;13.764;2024-02-14T13:40:45;2.63;;;1.50;;
43801;SDS011;29429;51.074;13.764;2024-02-14T13:43:12;4.63;;;1.23;;
43801;SDS011;29429;51.074;13.764;2024-02-14T13:45:44;2.47;;;1.35;;
43801;SDS011;29429;51.074;13.764;2024-02-14T13:48:12;1.73;;;1.10;;
43801;SDS011;29429;51.074;13.764;2024-02-14T13:50:40;3.47;;;1.15;;
43801;SDS011;29429;51.074;13.764;2024-02-14T13:53:09;2.90;;;1.25;;
43801;SDS011;29429;51.074;13.764;2024-02-14T13:55:36;2.00;;;0.93;;
43801;SDS011;29429;51.074;13.764;2024-02-14T13:58:05;4.05;;;1.20;;
43801;SDS011;29429;51.074;13.764;2024-02-14T14:00:32;2.85;;;1.55;;
43801;SDS011;29429;51.074;13.764;2024-02-14T14:03:00;2.88;;;1.20;;
43801;SDS011;29429;51.074;13.764;2024-02-14T14:05:27;3.35;;;1.70;;
43801;SDS011;29429;51.074;13.764;2024-02-14T14:07:54;4.60;;;1.52;;
43801;SDS011;29429;51.074;13.764;2024-02-14T14:10:27;2.13;;;1.00;;
43801;SDS011;29429;51.074;13.764;2024-02-14T14:12:55;2.83;;;1.10;;
43801;SDS011;29429;51.074;13.764;2024-02-14T14:15:23;5.35;;;1.10;;
43801;SDS011;29429;51.074;13.764;2024-02-14T14:17:50;1.90;;;1.00;;
43801;SDS011;29429;51.074;13.764;2024-02-14T14:20:18;1.42;;;1.00;;
43801;SDS011;29429;51.074;13.764;2024-02-14T14:22:46;2.95;;;1.13;;
43801;SDS011;29429;51.074;13.764;2024-02-14T14:25:13;5.55;;;1.20;;
43801;SDS011;29429;51.074;13.764;2024-02-14T14:27:41;1.50;;;0.90;;
43801;SDS011;29429;51.074;13.764;2024-02-14T14:30:09;2.53;;;1.10;;
43801;SDS011;29429;51.074;13.764;2024-02-14T14:32:38;1.80;;;1.23;;
43801;SDS011;29429;51.074;13.764;2024-02-14T14:35:07;1.83;;;0.88;;
43801;SDS011;29429;51.074;13.764;2024-02-14T14:37:38;3.25;;;1.20;;
43801;SDS011;29429;51.074;13.764;2024-02-14T14:40:05;2.53;;;1.17;;
43801;SDS011;29429;51.074;13.764;2024-02-14T14:42:34;4.00;;;1.52;;
43801;SDS011;29429;51.074;13.764;2024-02-14T14:45:01;1.77;;;1.10;;